Thunder radar more information blitzortung!


Radar de pluja more information rain snow radar


Visita la nostra xarxa de llocs de meteo:

Template documentation
and downloads

And another site



No particular awareness of the weather is required.    There are no Weather-warnings

Pagina Historial Weather Underground text

Diari Resum Juny 14, 2017 Unitats:  Imperial    Mètric   Tant
« Previous Dia
SegĂźent Dia »
Diari Setmana Mensual Anual Personalitzada
  Maxima: Minima: Media:
Temperatura: 95.5 °F 66.2 °F 84.9 °F
Punt de rosada: 56.5 °F 41.2 °F 48.9 °F
Humitat: 58 % 22 % 30 %
Wind Speed: 13.8 mph 0 mph 5.2 mph
RĂ fegues de vent: 13.8 mph - -
Vent:- - SSW
Pression baro: 29.9 in 29.8 in -
Precipitacions: 0 in    
Historical Graphs
 
 
Dades de taula per Juny 14, 2017
Temps Temperatura Punt de rosada Pression baro Vent Wind Speed RĂ fegues de vent Humitat Rainfall Rate (Hourly)
00:02 75.4 °F 51.3 °F 29.9 in SW 1.2 mph 1.4 mph 43 % 0 in
01:45 66.2 °F 51.1 °F 29.9 in SW 1 mph 1 mph 58 % 0 in
01:55 66.4 °F 51.3 °F 29.9 in Calm   1 mph 58 % 0 in
02:05 67.6 °F 52.3 °F 29.9 in SW 1 mph 1 mph 58 % 0 in
02:15 68 °F 51.6 °F 29.9 in Calm   2 mph 56 % 0 in
02:25 69.3 °F 52.3 °F 29.9 in ENE 1 mph 1 mph 55 % 0 in
02:35 69.8 °F 52.3 °F 29.9 in ENE 1 mph 1 mph 54 % 0 in
02:45 70.3 °F 52.3 °F 29.9 in Calm   1 mph 53 % 0 in
02:55 70.9 °F 53.4 °F 29.9 in Calm   1 mph 54 % 0 in
03:05 71.4 °F 52.9 °F 29.9 in ENE 2 mph 2 mph 52 % 0 in
03:15 71.6 °F 52.5 °F 29.9 in ENE 1 mph 2 mph 51 % 0 in
03:25 72.5 °F 53.2 °F 29.9 in Calm   2 mph 51 % 0 in
03:35 73 °F 53.8 °F 29.9 in SSW 1 mph 2 mph 51 % 0 in
03:45 73.9 °F 53.1 °F 29.9 in NE 2 mph 4 mph 48 % 0 in
03:55 75.4 °F 54.3 °F 29.9 in ENE 1 mph 2 mph 48 % 0 in
04:05 76.1 °F 54.3 °F 29.9 in East 1 mph 2 mph 47 % 0 in
04:15 77 °F 54.7 °F 29.9 in SSE 1 mph 2 mph 46 % 0 in
04:25 76.6 °F 54.3 °F 29.9 in SW 2 mph 2 mph 46 % 0 in
04:35 77.7 °F 54.7 °F 29.9 in Calm   2 mph 45 % 0 in
04:45 79.3 °F 55.6 °F 29.9 in SW 2 mph 2 mph 44 % 0 in
04:55 80.6 °F 55.9 °F 29.9 in SSE 1 mph 2 mph 43 % 0 in
05:05 81.7 °F 56.5 °F 29.9 in ESE 2 mph 3 mph 42 % 0 in
05:15 82.8 °F 55.9 °F 29.9 in SE 3 mph 3 mph 40 % 0 in
05:25 84 °F 56.5 °F 29.9 in SSE 2 mph 2 mph 39 % 0 in
05:35 84 °F 55.8 °F 29.9 in SSW 3 mph 4 mph 38 % 0 in
10:41 84.4 °F 54.5 °F 29.9 in SW 5.8 mph 5.8 mph 36 % 0 in
10:46 84.4 °F 54.5 °F 29.9 in WSW 4.6 mph 4.6 mph 36 % 0 in
10:51 85.1 °F 55 °F 29.9 in SW 3.3 mph 3.3 mph 36 % 0 in
10:56 86.5 °F 55.6 °F 29.9 in West 2.3 mph 2.3 mph 35 % 0 in
11:01 87.1 °F 55.2 °F 29.9 in WNW 6.9 mph 6.9 mph 34 % 0 in
11:06 87.3 °F 55.6 °F 29.9 in SSW 6.2 mph 6.2 mph 34 % 0 in
11:11 87.1 °F 54.5 °F 29.9 in SSE 5.8 mph 5.8 mph 33 % 0 in
11:16 88 °F 54.3 °F 29.9 in WNW 6.9 mph 6.9 mph 32 % 0 in
11:21 88.3 °F 54 °F 29.9 in South 5.8 mph 5.8 mph 31 % 0 in
11:26 88 °F 53.6 °F 29.9 in SW 8.1 mph 8.1 mph 31 % 0 in
11:31 88 °F 52.7 °F 29.9 in SW 8.1 mph 8.1 mph 30 % 0 in
11:36 88.2 °F 52.9 °F 29.9 in SW 8.1 mph 8.1 mph 30 % 0 in
11:41 88.3 °F 53.1 °F 29.9 in SW 8.7 mph 8.7 mph 30 % 0 in
11:46 88.7 °F 52.3 °F 29.9 in SW 5.8 mph 5.8 mph 29 % 0 in
11:51 88.9 °F 52.5 °F 29.9 in SW 8.1 mph 8.7 mph 29 % 0 in
11:56 88.5 °F 51.3 °F 29.9 in WSW 6.9 mph 6.9 mph 28 % 0 in
12:01 88.9 °F 52.5 °F 29.9 in SW 11.5 mph 11.5 mph 29 % 0 in
12:06 89.2 °F 52.9 °F 29.9 in SW 5.6 mph 5.6 mph 29 % 0 in
12:11 88.9 °F 51.6 °F 29.9 in SW 9.2 mph 9.2 mph 28 % 0 in
12:16 89.4 °F 52 °F 29.9 in SSW 8.1 mph 8.1 mph 28 % 0 in
12:21 89.6 °F 51.3 °F 29.9 in SW 8.1 mph 8.1 mph 27 % 0 in
12:26 90.1 °F 51.6 °F 29.9 in SW 8.1 mph 8.1 mph 27 % 0 in
12:31 90.7 °F 52.2 °F 29.9 in WSW 6.9 mph 6.9 mph 27 % 0 in
12:32 90.7 °F 52.2 °F 29.9 in SW 5.9 mph 5.9 mph 27 % 0 in
12:37 90.9 °F 52.3 °F 29.9 in South 5.8 mph 5.8 mph 27 % 0 in
12:42 90.5 °F 52 °F 29.9 in SSW 10.4 mph 10.4 mph 27 % 0 in
12:47 90.5 °F 50.9 °F 29.9 in SSW 13.8 mph 13.8 mph 26 % 0 in
12:52 90.5 °F 50.9 °F 29.9 in SSW 9.2 mph 9.2 mph 26 % 0 in
12:57 91.4 °F 51.6 °F 29.9 in SSW 5.9 mph 5.9 mph 26 % 0 in
13:02 91.6 °F 51.8 °F 29.9 in SSE 8.1 mph 8.1 mph 26 % 0 in
13:07 93 °F 53.1 °F 29.9 in SSW 2.9 mph 2.9 mph 26 % 0 in
13:12 92.5 °F 52.5 °F 29.9 in South 12.1 mph 12.1 mph 26 % 0 in
13:17 92.3 °F 52.5 °F 29.9 in SW 9.2 mph 9.2 mph 26 % 0 in
13:22 92.5 °F 52.5 °F 29.9 in SSE 5.8 mph 5.8 mph 26 % 0 in
13:27 92.7 °F 52.9 °F 29.9 in WSW 10.4 mph 10.4 mph 26 % 0 in
13:32 92.8 °F 51.8 °F 29.9 in SW 7.6 mph 7.6 mph 25 % 0 in
13:37 92.8 °F 51.8 °F 29.9 in SSW 8.1 mph 8.1 mph 25 % 0 in
13:42 94.1 °F 52.9 °F 29.9 in WSW 5.8 mph 6 mph 25 % 0 in
13:47 93.2 °F 52.2 °F 29.8 in South 5.6 mph 5.6 mph 25 % 0 in
13:52 93.2 °F 52.2 °F 29.8 in South 6.9 mph 6.9 mph 25 % 0 in
13:57 93.2 °F 51.1 °F 29.8 in South 6.9 mph 6.9 mph 24 % 0 in
14:02 93.2 °F 51.1 °F 29.9 in ESE 11.5 mph 11.5 mph 24 % 0 in
14:07 94.1 °F 52.9 °F 29.9 in South 9.2 mph 9.2 mph 25 % 0 in
14:12 93 °F 50.9 °F 29.9 in SW 11.5 mph 11.5 mph 24 % 0 in
14:17 92.8 °F 50.7 °F 29.9 in SSW 10.5 mph 10.5 mph 24 % 0 in
14:22 93 °F 50.9 °F 29.9 in WSW 6.9 mph 6.9 mph 24 % 0 in
14:27 93.6 °F 52.5 °F 29.9 in SSW 5.8 mph 5.8 mph 25 % 0 in
14:32 93 °F 50.9 °F 29.9 in South 12.7 mph 12.7 mph 24 % 0 in
14:37 93.9 °F 51.6 °F 29.9 in South 5.8 mph 5.8 mph 24 % 0 in
14:42 93.4 °F 51.3 °F 29.9 in WSW 8.1 mph 8.1 mph 24 % 0 in
14:47 93.6 °F 51.3 °F 29.9 in SW 10.4 mph 10.4 mph 24 % 0 in
14:52 94.1 °F 51.8 °F 29.9 in SSW 5.8 mph 5.8 mph 24 % 0 in
14:57 94.6 °F 52.2 °F 29.9 in SSW 9.2 mph 9.2 mph 24 % 0 in
15:02 93.9 °F 50.5 °F 29.9 in SSW 12.7 mph 12.7 mph 23 % 0 in
15:07 93.7 °F 51.4 °F 29.9 in SW 8.7 mph 8.7 mph 24 % 0 in
15:12 93.7 °F 51.4 °F 29.9 in SSW 6.2 mph 6.2 mph 24 % 0 in
15:17 93.6 °F 51.3 °F 29.9 in WSW 5.8 mph 5.8 mph 24 % 0 in
15:22 94.6 °F 51.1 °F 29.9 in SSW 6 mph 6 mph 23 % 0 in
15:27 95 °F 51.4 °F 29.9 in SSE 4.6 mph 4.6 mph 23 % 0 in
15:32 95 °F 50.2 °F 29.9 in SSW 9.2 mph 9.2 mph 22 % 0 in
15:37 94.6 °F 52.2 °F 29.9 in SW 8.1 mph 8.1 mph 24 % 0 in
15:42 94.8 °F 51.3 °F 29.9 in West 9.2 mph 9.2 mph 23 % 0 in
15:47 94.8 °F 51.3 °F 29.8 in SW 10 mph 10 mph 23 % 0 in
15:52 94.3 °F 50.7 °F 29.8 in SW 8.1 mph 8.1 mph 23 % 0 in
15:57 94.3 °F 50.7 °F 29.8 in SSE 6.9 mph 6.9 mph 23 % 0 in
16:02 94.8 °F 51.3 °F 29.8 in SW 7.6 mph 7.6 mph 23 % 0 in
16:07 94.8 °F 51.3 °F 29.8 in WSW 10.4 mph 10.4 mph 23 % 0 in
16:12 95.5 °F 50.5 °F 29.8 in SSW 4.6 mph 4.6 mph 22 % 0 in
16:17 95.4 °F 51.6 °F 29.8 in SW 6.9 mph 6.9 mph 23 % 0 in
16:22 95.2 °F 51.4 °F 29.8 in SSW 8.1 mph 8.1 mph 23 % 0 in
16:27 95 °F 50.2 °F 29.8 in SW 9.2 mph 9.2 mph 22 % 0 in
16:32 95.2 °F 50.4 °F 29.8 in SW 9.2 mph 9.2 mph 22 % 0 in
16:37 94.8 °F 51.3 °F 29.8 in SSE 5.8 mph 5.8 mph 23 % 0 in
16:42 93.9 °F 50.5 °F 29.8 in SSE 6.9 mph 6.9 mph 23 % 0 in
16:47 93.6 °F 50.2 °F 29.8 in SSW 10.4 mph 10.4 mph 23 % 0 in
16:52 93.9 °F 50.5 °F 29.8 in SW 6.9 mph 6.9 mph 23 % 0 in
16:57 94.5 °F 50.9 °F 29.8 in SW 12.7 mph 12.7 mph 23 % 0 in
17:02 93 °F 49.6 °F 29.8 in WSW 10.4 mph 10.4 mph 23 % 0 in
17:07 93 °F 49.6 °F 29.8 in SW 9.2 mph 9.2 mph 23 % 0 in
17:12 93.7 °F 51.4 °F 29.8 in WSW 7.8 mph 7.8 mph 24 % 0 in
17:17 93 °F 50.9 °F 29.8 in SSW 9.2 mph 9.2 mph 24 % 0 in
17:22 93.2 °F 51.1 °F 29.8 in SSW 8.1 mph 8.1 mph 24 % 0 in
17:27 93.7 °F 51.4 °F 29.8 in West 8.1 mph 8.1 mph 24 % 0 in
17:32 93.4 °F 51.3 °F 29.8 in SW 6.9 mph 6.9 mph 24 % 0 in
17:37 93.6 °F 51.3 °F 29.8 in SW 4.9 mph 4.9 mph 24 % 0 in
17:42 93.4 °F 51.3 °F 29.8 in SSW 10.4 mph 10.4 mph 24 % 0 in
17:47 92.7 °F 50.5 °F 29.8 in SSE 11.5 mph 11.5 mph 24 % 0 in
17:52 92.8 °F 50.7 °F 29.8 in WSW 8.1 mph 8.1 mph 24 % 0 in
17:57 93 °F 50.9 °F 29.8 in East 8.1 mph 8.1 mph 24 % 0 in
18:02 92.7 °F 49.5 °F 29.8 in SE 6.9 mph 6.9 mph 23 % 0 in
18:07 92.5 °F 49.3 °F 29.8 in South 5.8 mph 5.8 mph 23 % 0 in
18:12 92.3 °F 50.4 °F 29.8 in South 6.9 mph 6.9 mph 24 % 0 in
18:17 92.7 °F 50.5 °F 29.8 in SW 5.8 mph 5.8 mph 24 % 0 in
18:22 92.1 °F 50.2 °F 29.8 in WSW 8.1 mph 8.1 mph 24 % 0 in
18:27 91.9 °F 50 °F 29.8 in WSW 5.8 mph 6 mph 24 % 0 in
18:32 91.6 °F 49.6 °F 29.8 in SW 5.6 mph 5.6 mph 24 % 0 in
18:35 77.5 °F 41.7 °F 29.9 in WSW 1 mph 2 mph 28 % 0 in
18:37 91.4 °F 48.4 °F 29.8 in SW 10.4 mph 10.4 mph 23 % 0 in
18:42 91.2 °F 49.5 °F 29.8 in SSW 5.9 mph 5.9 mph 24 % 0 in
18:45 77.4 °F 41.7 °F 29.9 in West 1 mph 2 mph 28 % 0 in
18:47 90.9 °F 49.1 °F 29.8 in SW 6.9 mph 6.9 mph 24 % 0 in
18:52 89.6 °F 48 °F 29.8 in SSW 11.5 mph 11.5 mph 24 % 0 in
18:55 77.2 °F 41.5 °F 29.9 in Calm   2 mph 28 % 0 in
18:57 89.8 °F 48.2 °F 29.8 in SW 8.1 mph 8.1 mph 24 % 0 in
19:02 90 °F 48.4 °F 29.8 in SW 5.8 mph 5.8 mph 24 % 0 in
19:07 89.6 °F 48 °F 29.8 in WSW 8.1 mph 8.1 mph 24 % 0 in
19:12 89.4 °F 47.8 °F 29.8 in SW 11.5 mph 11.5 mph 24 % 0 in
19:15 76.6 °F 43 °F 29.9 in Calm     30 % 0 in
19:17 89.1 °F 47.7 °F 29.8 in SW 6.9 mph 6.9 mph 24 % 0 in
19:22 88.9 °F 47.5 °F 29.8 in SSW 6.9 mph 6.9 mph 24 % 0 in
19:25 76.5 °F 42.6 °F 29.9 in Calm   1 mph 30 % 0 in
19:27 88.7 °F 47.3 °F 29.8 in SSW 8.1 mph 8.1 mph 24 % 0 in
19:32 88 °F 46.8 °F 29.8 in WSW 7.4 mph 7.4 mph 24 % 0 in
19:35 76.3 °F 42.6 °F 29.9 in Calm     30 % 0 in
19:37 87.6 °F 46.4 °F 29.8 in SW 5.8 mph 5.8 mph 24 % 0 in
19:42 87.3 °F 46 °F 29.8 in WSW 9.2 mph 9.2 mph 24 % 0 in
19:45 75.9 °F 43.2 °F 29.9 in Calm     31 % 0 in
19:47 87.1 °F 45.9 °F 29.8 in SW 10.4 mph 10.4 mph 24 % 0 in
19:52 87.1 °F 45.9 °F 29.8 in SW 5.8 mph 5.8 mph 24 % 0 in
19:55 75.2 °F 43.3 °F 29.9 in Calm     32 % 0 in
19:57 86.9 °F 45.9 °F 29.8 in SSW 5.8 mph 5.8 mph 24 % 0 in
20:02 86.7 °F 45.7 °F 29.8 in SW 8.1 mph 8.1 mph 24 % 0 in
20:05 74.5 °F 42.6 °F 29.9 in SSW 1 mph 2 mph 32 % 0 in
20:07 86.5 °F 45.5 °F 29.8 in WSW 10.5 mph 10.5 mph 24 % 0 in
20:12 86.2 °F 45.1 °F 29.8 in WSW 8.1 mph 8.1 mph 24 % 0 in
20:15 74.5 °F 43.5 °F 29.9 in Calm   1 mph 33 % 0 in
20:18 86 °F 43.9 °F 29.8 in SW 6.9 mph 6.9 mph 23 % 0 in
20:25 74.3 °F 43.3 °F 29.9 in NW 1 mph 1 mph 33 % 0 in
20:28 85.6 °F 44.8 °F 29.8 in WSW 9.2 mph 9.2 mph 24 % 0 in
20:33 85.5 °F 44.4 °F 29.8 in SSW 5.8 mph 5.8 mph 24 % 0 in
20:35 73.9 °F 44.4 °F 29.9 in NNW 1 mph 2 mph 35 % 0 in
20:38 85.1 °F 44.2 °F 29.8 in SW 5.8 mph 5.8 mph 24 % 0 in
20:43 84.9 °F 44.1 °F 29.8 in SSW 5.8 mph 5.8 mph 24 % 0 in
20:45 73.8 °F 44.4 °F 29.9 in Calm   3 mph 35 % 0 in
20:48 84.6 °F 43.9 °F 29.8 in SW 4.6 mph 4.6 mph 24 % 0 in
20:53 84.4 °F 43.5 °F 29.8 in South 5.8 mph 5.8 mph 24 % 0 in
20:55 73.6 °F 44.2 °F 29.9 in Calm     35 % 0 in
20:58 84 °F 44.4 °F 29.8 in SW 5.8 mph 5.8 mph 25 % 0 in
21:03 83.8 °F 44.2 °F 29.9 in SSW 4.6 mph 4.6 mph 25 % 0 in
21:05 73.4 °F 44.8 °F 29.9 in Calm     36 % 0 in
21:08 83.5 °F 43.9 °F 29.9 in SW 5.8 mph 5.8 mph 25 % 0 in
21:13 83.1 °F 43.5 °F 29.9 in SW 3.5 mph 3.5 mph 25 % 0 in
21:15 72.9 °F 45.9 °F 29.9 in Calm     38 % 0 in
21:18 82.9 °F 43.5 °F 29.9 in SW 5.8 mph 5.8 mph 25 % 0 in
21:23 82.8 °F 43.3 °F 29.9 in SW 5.8 mph 5.8 mph 25 % 0 in
21:25 72.5 °F 46 °F 29.9 in Calm     39 % 0 in
21:28 82.4 °F 42.1 °F 29.9 in SW 3.5 mph 3.5 mph 24 % 0 in
21:33 82 °F 42.6 °F 29.9 in SW 3.5 mph 3.5 mph 25 % 0 in
21:35 72.1 °F 45.9 °F 29.9 in Calm   1 mph 39 % 0 in
21:38 81.9 °F 42.6 °F 29.9 in SW 2.9 mph 2.9 mph 25 % 0 in
21:43 81.7 °F 42.4 °F 29.9 in WSW 3.5 mph 3.5 mph 25 % 0 in
21:45 72.1 °F 46.6 °F 29.9 in Calm   1 mph 40 % 0 in
21:48 81.3 °F 42.1 °F 29.9 in SW 2.3 mph 2.3 mph 25 % 0 in
21:53 81 °F 41.7 °F 29.9 in SW 2.4 mph 2.4 mph 25 % 0 in
21:55 72 °F 46.2 °F 29.9 in Calm     40 % 0 in
21:58 80.8 °F 41.7 °F 29.9 in SW 3.5 mph 3.5 mph 25 % 0 in
22:03 80.6 °F 42.4 °F 29.9 in SW 2.3 mph 2.3 mph 26 % 0 in
22:05 71.8 °F 46.2 °F 29.9 in Calm   1 mph 40 % 0 in
22:08 80.2 °F 42.3 °F 29.9 in SW 2.4 mph 2.4 mph 26 % 0 in
22:13 79.9 °F 41.9 °F 29.9 in SSW 2.3 mph 2.3 mph 26 % 0 in
22:15 71.8 °F 46.2 °F 29.9 in Calm   1 mph 40 % 0 in
22:18 79.7 °F 41.7 °F 29.9 in SW 2.3 mph 2.3 mph 26 % 0 in
22:23 79.5 °F 41.5 °F 29.9 in WSW 2.4 mph 2.4 mph 26 % 0 in
22:25 71.6 °F 46.6 °F 29.9 in Calm   2 mph 41 % 0 in
22:28 79.3 °F 41.5 °F 29.9 in WSW 3.5 mph 3.5 mph 26 % 0 in
22:33 79.2 °F 42.3 °F 29.9 in WSW 2.4 mph 2.4 mph 27 % 0 in
22:35 71.1 °F 46.2 °F 29.9 in NE 1 mph 1 mph 41 % 0 in
22:38 79 °F 42.1 °F 29.9 in WSW 2.3 mph 2.3 mph 27 % 0 in
22:43 78.6 °F 41.7 °F 29.9 in WSW 2.3 mph 2.3 mph 27 % 0 in
22:45 70.5 °F 45.7 °F 29.9 in Calm   2 mph 41 % 0 in
22:48 78.4 °F 41.7 °F 29.9 in SW 2.3 mph 2.3 mph 27 % 0 in
22:53 78.3 °F 41.5 °F 29.9 in WSW 2.4 mph 2.4 mph 27 % 0 in
22:55 70.3 °F 46.2 °F 29.9 in Calm   1 mph 42 % 0 in
22:58 78.1 °F 41.4 °F 29.9 in SW 2.3 mph 2.3 mph 27 % 0 in
23:03 77.9 °F 41.2 °F 29.9 in SW 3.5 mph 3.5 mph 27 % 0 in
23:05 69.6 °F 46 °F 29.9 in North 1 mph 2 mph 43 % 0 in
23:08 77.7 °F 41.2 °F 29.9 in West 2.3 mph 2.3 mph 27 % 0 in
23:15 69.3 °F 46.4 °F 29.9 in WSW 1 mph 2 mph 44 % 0 in
23:25 68.7 °F 45.9 °F 29.9 in SW 1 mph 2 mph 44 % 0 in
23:35 68.4 °F 46.2 °F 29.9 in Calm   2 mph 45 % 0 in
23:45 68.4 °F 46.2 °F 29.9 in SW 1 mph 2 mph 45 % 0 in
23:55 67.8 °F 45.7 °F 29.9 in SW 2 mph 2 mph 45 % 0 in
23:59 77 °F 41.4 °F 29.9 in Calm     28 % 0 in
Meteo Sesrovires
Elogis d' Weather Underground - 3.5 mb

Guio original per  Jim McMurry - jmcmurry@mwt.net Adaptat per a la plantilla per  Wim van der Kuil - Leuven-Template.eu

Trobareu la nostra informacio del temps tambe a:

Weather Underground

AWEKAS